sensor_id;sensor_type;location;lat;lon;timestamp;temperature;humidity
11838;DHT22;5978;51.020;6.764;2023-04-29T00:00:43;13.40;99.90
11838;DHT22;5978;51.020;6.764;2023-04-29T00:03:08;13.30;99.90
11838;DHT22;5978;51.020;6.764;2023-04-29T00:05:34;13.30;99.90
11838;DHT22;5978;51.020;6.764;2023-04-29T00:08:00;13.30;99.90
11838;DHT22;5978;51.020;6.764;2023-04-29T00:10:25;13.20;99.90
11838;DHT22;5978;51.020;6.764;2023-04-29T00:12:51;13.20;99.90
11838;DHT22;5978;51.020;6.764;2023-04-29T00:15:17;13.20;99.90
11838;DHT22;5978;51.020;6.764;2023-04-29T00:17:42;13.10;99.90
11838;DHT22;5978;51.020;6.764;2023-04-29T00:20:10;13.10;99.90
11838;DHT22;5978;51.020;6.764;2023-04-29T00:22:37;13.10;99.90
11838;DHT22;5978;51.020;6.764;2023-04-29T00:25:04;13.10;99.90
11838;DHT22;5978;51.020;6.764;2023-04-29T00:27:30;13.10;99.90
11838;DHT22;5978;51.020;6.764;2023-04-29T00:29:56;13.10;99.90
11838;DHT22;5978;51.020;6.764;2023-04-29T00:32:22;13.10;99.90
11838;DHT22;5978;51.020;6.764;2023-04-29T00:34:48;13.10;99.90
11838;DHT22;5978;51.020;6.764;2023-04-29T00:37:14;13.10;99.90
11838;DHT22;5978;51.020;6.764;2023-04-29T00:39:40;13.10;99.90
11838;DHT22;5978;51.020;6.764;2023-04-29T00:42:05;13.10;99.90
11838;DHT22;5978;51.020;6.764;2023-04-29T00:44:31;13.10;99.90
11838;DHT22;5978;51.020;6.764;2023-04-29T00:46:57;13.10;99.90
11838;DHT22;5978;51.020;6.764;2023-04-29T00:49:23;12.90;99.90
11838;DHT22;5978;51.020;6.764;2023-04-29T00:51:50;12.90;99.90
11838;DHT22;5978;51.020;6.764;2023-04-29T00:54:16;12.80;99.90
11838;DHT22;5978;51.020;6.764;2023-04-29T00:56:44;12.90;99.90
11838;DHT22;5978;51.020;6.764;2023-04-29T00:59:10;12.90;99.90
11838;DHT22;5978;51.020;6.764;2023-04-29T01:01:37;12.90;99.90
11838;DHT22;5978;51.020;6.764;2023-04-29T01:04:04;12.80;99.90
11838;DHT22;5978;51.020;6.764;2023-04-29T01:06:53;12.80;99.90
11838;DHT22;5978;51.020;6.764;2023-04-29T01:09:54;12.80;99.90
11838;DHT22;5978;51.020;6.764;2023-04-29T01:17:43;12.80;99.90
11838;DHT22;5978;51.020;6.764;2023-04-29T01:20:12;12.70;99.90
11838;DHT22;5978;51.020;6.764;2023-04-29T01:22:39;12.70;99.90
11838;DHT22;5978;51.020;6.764;2023-04-29T01:25:08;12.70;99.90
11838;DHT22;5978;51.020;6.764;2023-04-29T01:30:27;12.70;99.90
11838;DHT22;5978;51.020;6.764;2023-04-29T01:33:10;12.60;99.90
11838;DHT22;5978;51.020;6.764;2023-04-29T01:38:47;12.40;99.90
11838;DHT22;5978;51.020;6.764;2023-04-29T01:44:02;12.40;99.90
11838;DHT22;5978;51.020;6.764;2023-04-29T01:46:30;12.30;99.90
11838;DHT22;5978;51.020;6.764;2023-04-29T01:48:55;12.40;99.90
11838;DHT22;5978;51.020;6.764;2023-04-29T01:51:21;12.40;99.90
11838;DHT22;5978;51.020;6.764;2023-04-29T01:53:46;12.30;99.90
11838;DHT22;5978;51.020;6.764;2023-04-29T01:56:12;12.30;99.90
11838;DHT22;5978;51.020;6.764;2023-04-29T01:58:38;12.30;99.90
11838;DHT22;5978;51.020;6.764;2023-04-29T02:01:04;12.30;99.90
11838;DHT22;5978;51.020;6.764;2023-04-29T02:03:31;12.30;99.90
11838;DHT22;5978;51.020;6.764;2023-04-29T02:05:56;12.30;99.90
11838;DHT22;5978;51.020;6.764;2023-04-29T02:08:23;12.20;99.90
11838;DHT22;5978;51.020;6.764;2023-04-29T02:10:56;12.30;99.90
11838;DHT22;5978;51.020;6.764;2023-04-29T02:13:22;12.30;99.90
11838;DHT22;5978;51.020;6.764;2023-04-29T02:15:48;12.20;99.90
11838;DHT22;5978;51.020;6.764;2023-04-29T02:18:14;12.10;99.90
11838;DHT22;5978;51.020;6.764;2023-04-29T02:20:40;12.10;99.90
11838;DHT22;5978;51.020;6.764;2023-04-29T02:23:06;12.10;99.90
11838;DHT22;5978;51.020;6.764;2023-04-29T02:25:32;12.00;99.90
11838;DHT22;5978;51.020;6.764;2023-04-29T02:27:57;12.00;99.90
11838;DHT22;5978;51.020;6.764;2023-04-29T02:30:23;12.00;99.90
11838;DHT22;5978;51.020;6.764;2023-04-29T02:32:48;12.00;99.90
11838;DHT22;5978;51.020;6.764;2023-04-29T02:35:14;12.00;99.90
11838;DHT22;5978;51.020;6.764;2023-04-29T02:37:40;11.90;99.90
11838;DHT22;5978;51.020;6.764;2023-04-29T02:40:06;11.90;99.90
11838;DHT22;5978;51.020;6.764;2023-04-29T02:42:32;11.90;99.90
11838;DHT22;5978;51.020;6.764;2023-04-29T02:44:57;12.00;99.90
11838;DHT22;5978;51.020;6.764;2023-04-29T02:47:23;11.90;99.90
11838;DHT22;5978;51.020;6.764;2023-04-29T02:49:49;11.90;99.90
11838;DHT22;5978;51.020;6.764;2023-04-29T02:52:15;11.90;99.90
11838;DHT22;5978;51.020;6.764;2023-04-29T02:54:42;11.90;99.90
11838;DHT22;5978;51.020;6.764;2023-04-29T02:57:08;11.90;99.90
11838;DHT22;5978;51.020;6.764;2023-04-29T02:59:33;11.90;99.90
11838;DHT22;5978;51.020;6.764;2023-04-29T03:01:59;11.90;99.90
11838;DHT22;5978;51.020;6.764;2023-04-29T03:04:26;11.90;99.90
11838;DHT22;5978;51.020;6.764;2023-04-29T03:06:55;11.90;99.90
11838;DHT22;5978;51.020;6.764;2023-04-29T03:09:22;11.90;99.90
11838;DHT22;5978;51.020;6.764;2023-04-29T03:11:48;11.80;99.90
11838;DHT22;5978;51.020;6.764;2023-04-29T03:14:14;11.80;99.90
11838;DHT22;5978;51.020;6.764;2023-04-29T03:16:40;11.70;99.90
11838;DHT22;5978;51.020;6.764;2023-04-29T03:19:05;11.60;99.90
11838;DHT22;5978;51.020;6.764;2023-04-29T03:21:32;11.60;99.90
11838;DHT22;5978;51.020;6.764;2023-04-29T03:23:58;11.60;99.90
11838;DHT22;5978;51.020;6.764;2023-04-29T03:26:23;11.50;99.90
11838;DHT22;5978;51.020;6.764;2023-04-29T03:28:50;11.50;99.90
11838;DHT22;5978;51.020;6.764;2023-04-29T03:31:16;11.40;99.90
11838;DHT22;5978;51.020;6.764;2023-04-29T03:33:42;11.40;99.90
11838;DHT22;5978;51.020;6.764;2023-04-29T03:36:08;11.40;99.90
11838;DHT22;5978;51.020;6.764;2023-04-29T03:38:34;11.30;99.90
11838;DHT22;5978;51.020;6.764;2023-04-29T03:40:59;11.20;99.90
11838;DHT22;5978;51.020;6.764;2023-04-29T03:43:25;11.20;99.90
11838;DHT22;5978;51.020;6.764;2023-04-29T03:45:51;11.10;99.90
11838;DHT22;5978;51.020;6.764;2023-04-29T03:48:17;11.00;99.90
11838;DHT22;5978;51.020;6.764;2023-04-29T03:50:44;11.00;99.90
11838;DHT22;5978;51.020;6.764;2023-04-29T03:53:11;11.00;99.90
11838;DHT22;5978;51.020;6.764;2023-04-29T03:55:37;11.00;99.90
11838;DHT22;5978;51.020;6.764;2023-04-29T03:58:02;11.00;99.90
11838;DHT22;5978;51.020;6.764;2023-04-29T04:00:29;11.10;99.90
11838;DHT22;5978;51.020;6.764;2023-04-29T04:02:56;11.10;99.90
11838;DHT22;5978;51.020;6.764;2023-04-29T04:05:22;11.10;99.90
11838;DHT22;5978;51.020;6.764;2023-04-29T04:07:50;11.10;99.90
11838;DHT22;5978;51.020;6.764;2023-04-29T04:10:17;11.10;99.90
11838;DHT22;5978;51.020;6.764;2023-04-29T04:12:43;11.20;99.90
11838;DHT22;5978;51.020;6.764;2023-04-29T04:15:08;11.20;99.90
11838;DHT22;5978;51.020;6.764;2023-04-29T04:17:34;11.20;99.90
11838;DHT22;5978;51.020;6.764;2023-04-29T04:20:00;11.20;99.90
11838;DHT22;5978;51.020;6.764;2023-04-29T04:22:25;11.20;99.90
11838;DHT22;5978;51.020;6.764;2023-04-29T04:24:53;11.10;99.90
11838;DHT22;5978;51.020;6.764;2023-04-29T04:27:19;11.10;99.90
11838;DHT22;5978;51.020;6.764;2023-04-29T04:29:45;11.10;99.90
11838;DHT22;5978;51.020;6.764;2023-04-29T04:32:11;11.10;99.90
11838;DHT22;5978;51.020;6.764;2023-04-29T04:34:36;11.10;99.90
11838;DHT22;5978;51.020;6.764;2023-04-29T04:37:04;11.10;99.90
11838;DHT22;5978;51.020;6.764;2023-04-29T04:39:31;11.10;99.90
11838;DHT22;5978;51.020;6.764;2023-04-29T04:41:56;11.10;99.90
11838;DHT22;5978;51.020;6.764;2023-04-29T04:44:22;11.20;99.90
11838;DHT22;5978;51.020;6.764;2023-04-29T04:46:49;11.20;99.90
11838;DHT22;5978;51.020;6.764;2023-04-29T04:49:15;11.20;99.90
11838;DHT22;5978;51.020;6.764;2023-04-29T04:51:43;11.10;99.90
11838;DHT22;5978;51.020;6.764;2023-04-29T04:54:09;11.10;99.90
11838;DHT22;5978;51.020;6.764;2023-04-29T04:56:36;11.10;99.90
11838;DHT22;5978;51.020;6.764;2023-04-29T04:59:03;11.10;99.90
11838;DHT22;5978;51.020;6.764;2023-04-29T05:01:28;11.10;99.90
11838;DHT22;5978;51.020;6.764;2023-04-29T05:03:54;11.10;99.90
11838;DHT22;5978;51.020;6.764;2023-04-29T05:06:20;11.10;99.90
11838;DHT22;5978;51.020;6.764;2023-04-29T05:08:46;11.10;99.90
11838;DHT22;5978;51.020;6.764;2023-04-29T05:11:16;11.10;99.90
11838;DHT22;5978;51.020;6.764;2023-04-29T05:13:42;11.10;99.90
11838;DHT22;5978;51.020;6.764;2023-04-29T05:16:08;11.00;99.90
11838;DHT22;5978;51.020;6.764;2023-04-29T05:18:33;11.10;99.90
11838;DHT22;5978;51.020;6.764;2023-04-29T05:20:59;11.10;99.90
11838;DHT22;5978;51.020;6.764;2023-04-29T05:23:25;11.10;99.90
11838;DHT22;5978;51.020;6.764;2023-04-29T05:25:51;11.10;99.90
11838;DHT22;5978;51.020;6.764;2023-04-29T05:28:16;11.10;99.90
11838;DHT22;5978;51.020;6.764;2023-04-29T05:30:42;11.20;99.90
11838;DHT22;5978;51.020;6.764;2023-04-29T05:33:09;11.20;99.90
11838;DHT22;5978;51.020;6.764;2023-04-29T05:35:35;11.10;99.90
11838;DHT22;5978;51.020;6.764;2023-04-29T05:38:02;11.20;99.90
11838;DHT22;5978;51.020;6.764;2023-04-29T05:40:27;11.20;99.90
11838;DHT22;5978;51.020;6.764;2023-04-29T05:42:53;11.20;99.90
11838;DHT22;5978;51.020;6.764;2023-04-29T05:45:19;11.20;99.90
11838;DHT22;5978;51.020;6.764;2023-04-29T05:47:45;11.20;99.90
11838;DHT22;5978;51.020;6.764;2023-04-29T05:50:10;11.30;99.90
11838;DHT22;5978;51.020;6.764;2023-04-29T05:52:37;11.30;99.90
11838;DHT22;5978;51.020;6.764;2023-04-29T05:55:03;11.40;99.90
11838;DHT22;5978;51.020;6.764;2023-04-29T05:57:28;11.40;99.90
11838;DHT22;5978;51.020;6.764;2023-04-29T05:59:54;11.40;99.90
11838;DHT22;5978;51.020;6.764;2023-04-29T06:02:20;11.40;99.90
11838;DHT22;5978;51.020;6.764;2023-04-29T06:04:46;11.40;99.90
11838;DHT22;5978;51.020;6.764;2023-04-29T06:07:14;11.50;99.90
11838;DHT22;5978;51.020;6.764;2023-04-29T06:09:40;11.50;99.90
11838;DHT22;5978;51.020;6.764;2023-04-29T06:12:07;11.40;99.90
11838;DHT22;5978;51.020;6.764;2023-04-29T06:14:32;11.40;99.90
11838;DHT22;5978;51.020;6.764;2023-04-29T06:16:58;11.60;99.90
11838;DHT22;5978;51.020;6.764;2023-04-29T06:19:23;11.60;99.90
11838;DHT22;5978;51.020;6.764;2023-04-29T06:21:49;11.60;99.90
11838;DHT22;5978;51.020;6.764;2023-04-29T06:24:15;11.50;99.90
11838;DHT22;5978;51.020;6.764;2023-04-29T06:26:41;11.60;99.90
11838;DHT22;5978;51.020;6.764;2023-04-29T06:29:07;11.50;99.90
11838;DHT22;5978;51.020;6.764;2023-04-29T06:31:33;11.50;99.90
11838;DHT22;5978;51.020;6.764;2023-04-29T06:33:58;11.60;99.90
11838;DHT22;5978;51.020;6.764;2023-04-29T06:36:24;11.60;99.90
11838;DHT22;5978;51.020;6.764;2023-04-29T06:38:51;11.70;99.90
11838;DHT22;5978;51.020;6.764;2023-04-29T06:41:17;11.70;99.90
11838;DHT22;5978;51.020;6.764;2023-04-29T06:43:43;11.70;99.90
11838;DHT22;5978;51.020;6.764;2023-04-29T06:46:09;11.80;99.90
11838;DHT22;5978;51.020;6.764;2023-04-29T06:48:35;11.90;99.90
11838;DHT22;5978;51.020;6.764;2023-04-29T06:51:01;12.00;99.90
11838;DHT22;5978;51.020;6.764;2023-04-29T06:53:27;12.10;99.90
11838;DHT22;5978;51.020;6.764;2023-04-29T06:55:52;12.10;99.90
11838;DHT22;5978;51.020;6.764;2023-04-29T06:58:18;12.20;99.90
11838;DHT22;5978;51.020;6.764;2023-04-29T07:00:45;12.30;99.90
11838;DHT22;5978;51.020;6.764;2023-04-29T07:03:12;12.40;99.90
11838;DHT22;5978;51.020;6.764;2023-04-29T07:05:37;12.50;99.90
11838;DHT22;5978;51.020;6.764;2023-04-29T07:08:05;12.40;99.90
11838;DHT22;5978;51.020;6.764;2023-04-29T07:10:31;12.50;99.90
11838;DHT22;5978;51.020;6.764;2023-04-29T07:12:57;12.50;99.90
11838;DHT22;5978;51.020;6.764;2023-04-29T07:15:27;12.60;99.90
11838;DHT22;5978;51.020;6.764;2023-04-29T07:17:54;12.60;99.90
11838;DHT22;5978;51.020;6.764;2023-04-29T07:20:20;12.70;99.90
11838;DHT22;5978;51.020;6.764;2023-04-29T07:22:45;12.70;99.90
11838;DHT22;5978;51.020;6.764;2023-04-29T07:25:11;12.60;99.90
11838;DHT22;5978;51.020;6.764;2023-04-29T07:27:37;12.60;99.90
11838;DHT22;5978;51.020;6.764;2023-04-29T07:30:03;12.80;99.90
11838;DHT22;5978;51.020;6.764;2023-04-29T07:32:30;13.00;99.90
11838;DHT22;5978;51.020;6.764;2023-04-29T07:34:59;13.10;99.90
11838;DHT22;5978;51.020;6.764;2023-04-29T07:37:25;13.10;99.90
11838;DHT22;5978;51.020;6.764;2023-04-29T07:39:51;13.10;99.90
11838;DHT22;5978;51.020;6.764;2023-04-29T07:42:17;12.90;99.90
11838;DHT22;5978;51.020;6.764;2023-04-29T07:44:43;12.90;99.90
11838;DHT22;5978;51.020;6.764;2023-04-29T07:47:10;12.90;99.90
11838;DHT22;5978;51.020;6.764;2023-04-29T07:49:36;12.80;99.90
11838;DHT22;5978;51.020;6.764;2023-04-29T07:52:04;12.80;99.90
11838;DHT22;5978;51.020;6.764;2023-04-29T07:54:30;12.70;99.90
11838;DHT22;5978;51.020;6.764;2023-04-29T07:56:59;12.70;99.90
11838;DHT22;5978;51.020;6.764;2023-04-29T07:59:25;12.60;99.90
11838;DHT22;5978;51.020;6.764;2023-04-29T08:01:51;12.60;99.90
11838;DHT22;5978;51.020;6.764;2023-04-29T08:04:17;12.70;99.90
11838;DHT22;5978;51.020;6.764;2023-04-29T08:06:43;12.70;99.90
11838;DHT22;5978;51.020;6.764;2023-04-29T08:09:09;12.70;99.90
11838;DHT22;5978;51.020;6.764;2023-04-29T08:11:35;12.60;99.90
11838;DHT22;5978;51.020;6.764;2023-04-29T08:14:01;12.60;99.90
11838;DHT22;5978;51.020;6.764;2023-04-29T08:16:26;12.60;99.90
11838;DHT22;5978;51.020;6.764;2023-04-29T08:18:52;12.50;99.90
11838;DHT22;5978;51.020;6.764;2023-04-29T08:21:18;12.30;99.90
11838;DHT22;5978;51.020;6.764;2023-04-29T08:23:44;12.40;99.90
11838;DHT22;5978;51.020;6.764;2023-04-29T08:26:10;12.60;99.90
11838;DHT22;5978;51.020;6.764;2023-04-29T08:28:37;12.70;99.90
11838;DHT22;5978;51.020;6.764;2023-04-29T08:31:03;12.70;99.90
11838;DHT22;5978;51.020;6.764;2023-04-29T08:33:34;12.80;99.90
11838;DHT22;5978;51.020;6.764;2023-04-29T08:36:00;12.70;99.90
11838;DHT22;5978;51.020;6.764;2023-04-29T08:38:28;12.80;99.90
11838;DHT22;5978;51.020;6.764;2023-04-29T08:40:54;13.00;99.90
11838;DHT22;5978;51.020;6.764;2023-04-29T08:43:21;13.20;99.90
11838;DHT22;5978;51.020;6.764;2023-04-29T08:45:48;13.40;99.90
11838;DHT22;5978;51.020;6.764;2023-04-29T08:48:15;13.60;99.90
11838;DHT22;5978;51.020;6.764;2023-04-29T08:50:42;13.70;99.90
11838;DHT22;5978;51.020;6.764;2023-04-29T08:53:08;13.70;99.90
11838;DHT22;5978;51.020;6.764;2023-04-29T08:55:44;13.80;99.90
11838;DHT22;5978;51.020;6.764;2023-04-29T08:58:11;13.90;99.90
11838;DHT22;5978;51.020;6.764;2023-04-29T09:00:39;13.80;99.90
11838;DHT22;5978;51.020;6.764;2023-04-29T09:03:21;14.00;99.90
11838;DHT22;5978;51.020;6.764;2023-04-29T09:05:52;14.30;99.90
11838;DHT22;5978;51.020;6.764;2023-04-29T09:08:21;14.50;99.90
11838;DHT22;5978;51.020;6.764;2023-04-29T09:10:48;14.60;99.90
11838;DHT22;5978;51.020;6.764;2023-04-29T09:13:30;14.70;99.90
11838;DHT22;5978;51.020;6.764;2023-04-29T09:15:57;14.90;99.90
11838;DHT22;5978;51.020;6.764;2023-04-29T09:18:48;14.80;99.90
11838;DHT22;5978;51.020;6.764;2023-04-29T09:23:48;14.30;99.90
11838;DHT22;5978;51.020;6.764;2023-04-29T09:26:14;14.10;99.90
11838;DHT22;5978;51.020;6.764;2023-04-29T09:28:40;14.10;99.90
11838;DHT22;5978;51.020;6.764;2023-04-29T09:31:10;14.10;99.90
11838;DHT22;5978;51.020;6.764;2023-04-29T09:33:55;14.10;99.90
11838;DHT22;5978;51.020;6.764;2023-04-29T09:36:35;14.00;99.90
11838;DHT22;5978;51.020;6.764;2023-04-29T09:39:04;14.00;99.90
11838;DHT22;5978;51.020;6.764;2023-04-29T09:41:36;14.00;99.90
11838;DHT22;5978;51.020;6.764;2023-04-29T09:44:03;13.90;99.90
11838;DHT22;5978;51.020;6.764;2023-04-29T09:46:32;13.90;99.90
11838;DHT22;5978;51.020;6.764;2023-04-29T09:48:58;13.60;99.90
11838;DHT22;5978;51.020;6.764;2023-04-29T09:51:23;13.60;99.90
11838;DHT22;5978;51.020;6.764;2023-04-29T09:53:49;13.60;99.90
11838;DHT22;5978;51.020;6.764;2023-04-29T09:56:14;13.60;99.90
11838;DHT22;5978;51.020;6.764;2023-04-29T09:58:40;13.60;99.90
11838;DHT22;5978;51.020;6.764;2023-04-29T10:01:06;13.40;99.90
11838;DHT22;5978;51.020;6.764;2023-04-29T10:03:34;13.30;99.90
11838;DHT22;5978;51.020;6.764;2023-04-29T10:06:01;13.20;99.90
11838;DHT22;5978;51.020;6.764;2023-04-29T10:08:29;13.20;99.90
11838;DHT22;5978;51.020;6.764;2023-04-29T10:10:59;13.20;99.90
11838;DHT22;5978;51.020;6.764;2023-04-29T10:13:26;13.20;99.90
11838;DHT22;5978;51.020;6.764;2023-04-29T10:16:28;13.20;99.90
11838;DHT22;5978;51.020;6.764;2023-04-29T10:18:55;13.10;99.90
11838;DHT22;5978;51.020;6.764;2023-04-29T10:21:27;13.00;99.90
11838;DHT22;5978;51.020;6.764;2023-04-29T10:23:56;12.90;99.90
11838;DHT22;5978;51.020;6.764;2023-04-29T10:26:23;12.90;99.90
11838;DHT22;5978;51.020;6.764;2023-04-29T10:28:50;12.80;99.90
11838;DHT22;5978;51.020;6.764;2023-04-29T10:31:18;12.70;99.90
11838;DHT22;5978;51.020;6.764;2023-04-29T10:33:47;12.80;99.90
11838;DHT22;5978;51.020;6.764;2023-04-29T10:36:13;12.90;99.90
11838;DHT22;5978;51.020;6.764;2023-04-29T10:38:46;12.90;99.90
11838;DHT22;5978;51.020;6.764;2023-04-29T10:41:23;12.80;99.90
11838;DHT22;5978;51.020;6.764;2023-04-29T10:43:54;12.80;99.90
11838;DHT22;5978;51.020;6.764;2023-04-29T10:46:24;12.70;99.90
11838;DHT22;5978;51.020;6.764;2023-04-29T10:48:59;12.80;99.90
11838;DHT22;5978;51.020;6.764;2023-04-29T10:51:42;12.80;99.90
11838;DHT22;5978;51.020;6.764;2023-04-29T10:54:12;12.80;99.90
11838;DHT22;5978;51.020;6.764;2023-04-29T10:56:43;12.80;99.90
11838;DHT22;5978;51.020;6.764;2023-04-29T10:59:19;13.00;99.90
11838;DHT22;5978;51.020;6.764;2023-04-29T11:01:50;13.00;99.90
11838;DHT22;5978;51.020;6.764;2023-04-29T11:04:20;13.00;99.90
11838;DHT22;5978;51.020;6.764;2023-04-29T11:07:01;12.90;99.90
11838;DHT22;5978;51.020;6.764;2023-04-29T11:09:29;13.00;99.90
11838;DHT22;5978;51.020;6.764;2023-04-29T11:14:41;13.10;99.90
11838;DHT22;5978;51.020;6.764;2023-04-29T11:17:15;13.20;99.90
11838;DHT22;5978;51.020;6.764;2023-04-29T11:19:42;13.10;99.90
11838;DHT22;5978;51.020;6.764;2023-04-29T11:25:00;13.20;99.90
11838;DHT22;5978;51.020;6.764;2023-04-29T11:27:32;13.20;99.90
11838;DHT22;5978;51.020;6.764;2023-04-29T11:29:59;13.30;99.90
11838;DHT22;5978;51.020;6.764;2023-04-29T11:32:27;13.20;99.90
11838;DHT22;5978;51.020;6.764;2023-04-29T11:34:54;13.30;99.90
11838;DHT22;5978;51.020;6.764;2023-04-29T11:37:24;13.40;99.90
11838;DHT22;5978;51.020;6.764;2023-04-29T11:39:58;13.30;99.90
11838;DHT22;5978;51.020;6.764;2023-04-29T11:42:24;13.40;99.90
11838;DHT22;5978;51.020;6.764;2023-04-29T11:44:56;13.50;99.90
11838;DHT22;5978;51.020;6.764;2023-04-29T11:47:28;13.50;99.90
11838;DHT22;5978;51.020;6.764;2023-04-29T11:50:04;13.60;99.90
11838;DHT22;5978;51.020;6.764;2023-04-29T11:52:31;13.50;99.90
11838;DHT22;5978;51.020;6.764;2023-04-29T11:54:57;13.70;99.90
11838;DHT22;5978;51.020;6.764;2023-04-29T11:57:25;13.90;99.90
11838;DHT22;5978;51.020;6.764;2023-04-29T11:59:51;14.00;99.90
11838;DHT22;5978;51.020;6.764;2023-04-29T12:02:21;14.00;99.90
11838;DHT22;5978;51.020;6.764;2023-04-29T12:04:48;14.00;99.90
11838;DHT22;5978;51.020;6.764;2023-04-29T12:07:14;14.20;99.90
11838;DHT22;5978;51.020;6.764;2023-04-29T12:09:42;14.20;99.90
11838;DHT22;5978;51.020;6.764;2023-04-29T12:12:09;14.20;99.90
11838;DHT22;5978;51.020;6.764;2023-04-29T12:14:35;14.30;99.90
11838;DHT22;5978;51.020;6.764;2023-04-29T12:17:01;14.30;99.90
11838;DHT22;5978;51.020;6.764;2023-04-29T12:19:27;14.40;99.90
11838;DHT22;5978;51.020;6.764;2023-04-29T12:21:58;14.60;99.90
11838;DHT22;5978;51.020;6.764;2023-04-29T12:24:23;14.80;99.90
11838;DHT22;5978;51.020;6.764;2023-04-29T12:26:49;15.10;99.90
11838;DHT22;5978;51.020;6.764;2023-04-29T12:29:15;15.40;99.90
11838;DHT22;5978;51.020;6.764;2023-04-29T12:31:41;15.70;99.90
11838;DHT22;5978;51.020;6.764;2023-04-29T12:34:07;15.90;99.90
11838;DHT22;5978;51.020;6.764;2023-04-29T12:36:33;15.90;99.90
11838;DHT22;5978;51.020;6.764;2023-04-29T12:38:59;16.00;99.90
11838;DHT22;5978;51.020;6.764;2023-04-29T12:41:41;16.10;99.90
11838;DHT22;5978;51.020;6.764;2023-04-29T12:44:07;15.80;99.90
11838;DHT22;5978;51.020;6.764;2023-04-29T12:46:40;15.90;99.90
11838;DHT22;5978;51.020;6.764;2023-04-29T12:49:07;16.00;99.90
11838;DHT22;5978;51.020;6.764;2023-04-29T12:51:33;15.90;99.90
11838;DHT22;5978;51.020;6.764;2023-04-29T12:54:01;16.10;99.90
11838;DHT22;5978;51.020;6.764;2023-04-29T12:56:32;16.40;99.90
11838;DHT22;5978;51.020;6.764;2023-04-29T12:59:08;16.60;99.90
11838;DHT22;5978;51.020;6.764;2023-04-29T13:01:38;16.90;99.90
11838;DHT22;5978;51.020;6.764;2023-04-29T13:04:06;16.90;99.90
11838;DHT22;5978;51.020;6.764;2023-04-29T13:06:33;17.10;99.90
11838;DHT22;5978;51.020;6.764;2023-04-29T13:09:07;17.40;99.90
11838;DHT22;5978;51.020;6.764;2023-04-29T13:11:36;17.50;99.90
11838;DHT22;5978;51.020;6.764;2023-04-29T13:14:02;17.60;99.90
11838;DHT22;5978;51.020;6.764;2023-04-29T13:16:28;17.70;99.90
11838;DHT22;5978;51.020;6.764;2023-04-29T13:18:54;18.00;99.90
11838;DHT22;5978;51.020;6.764;2023-04-29T13:21:20;18.10;99.90
11838;DHT22;5978;51.020;6.764;2023-04-29T13:23:45;18.20;99.90
11838;DHT22;5978;51.020;6.764;2023-04-29T13:26:12;18.20;99.90
11838;DHT22;5978;51.020;6.764;2023-04-29T13:28:38;18.20;99.90
11838;DHT22;5978;51.020;6.764;2023-04-29T13:31:04;18.10;99.90
11838;DHT22;5978;51.020;6.764;2023-04-29T13:33:30;18.30;99.90
11838;DHT22;5978;51.020;6.764;2023-04-29T13:35:56;17.80;99.90
11838;DHT22;5978;51.020;6.764;2023-04-29T13:38:21;18.10;99.90
11838;DHT22;5978;51.020;6.764;2023-04-29T13:40:47;17.90;99.90
11838;DHT22;5978;51.020;6.764;2023-04-29T13:43:13;17.70;99.90
11838;DHT22;5978;51.020;6.764;2023-04-29T13:45:38;17.70;99.90
11838;DHT22;5978;51.020;6.764;2023-04-29T13:48:04;17.80;99.90
11838;DHT22;5978;51.020;6.764;2023-04-29T13:50:30;17.80;99.90
11838;DHT22;5978;51.020;6.764;2023-04-29T13:52:56;17.70;99.90
11838;DHT22;5978;51.020;6.764;2023-04-29T13:55:22;17.90;99.90
11838;DHT22;5978;51.020;6.764;2023-04-29T13:57:47;18.00;99.90
11838;DHT22;5978;51.020;6.764;2023-04-29T14:00:13;18.10;99.90
11838;DHT22;5978;51.020;6.764;2023-04-29T14:02:40;18.30;99.90
11838;DHT22;5978;51.020;6.764;2023-04-29T14:05:06;18.60;99.90
11838;DHT22;5978;51.020;6.764;2023-04-29T14:07:31;18.70;99.90
11838;DHT22;5978;51.020;6.764;2023-04-29T14:09:57;18.70;99.90
11838;DHT22;5978;51.020;6.764;2023-04-29T14:12:23;18.50;99.90
11838;DHT22;5978;51.020;6.764;2023-04-29T14:14:48;18.40;99.90
11838;DHT22;5978;51.020;6.764;2023-04-29T14:17:17;18.20;99.90
11838;DHT22;5978;51.020;6.764;2023-04-29T14:19:42;18.00;99.90
11838;DHT22;5978;51.020;6.764;2023-04-29T14:22:08;17.90;99.90
11838;DHT22;5978;51.020;6.764;2023-04-29T14:24:33;17.90;99.90
11838;DHT22;5978;51.020;6.764;2023-04-29T14:26:59;17.70;99.90
11838;DHT22;5978;51.020;6.764;2023-04-29T14:29:26;17.60;99.90
11838;DHT22;5978;51.020;6.764;2023-04-29T14:31:52;17.40;99.90
11838;DHT22;5978;51.020;6.764;2023-04-29T14:34:17;17.30;99.90
11838;DHT22;5978;51.020;6.764;2023-04-29T14:36:44;17.10;99.90
11838;DHT22;5978;51.020;6.764;2023-04-29T14:39:11;17.10;99.90
11838;DHT22;5978;51.020;6.764;2023-04-29T14:41:37;17.00;99.90
11838;DHT22;5978;51.020;6.764;2023-04-29T14:44:03;16.90;99.90
11838;DHT22;5978;51.020;6.764;2023-04-29T14:46:30;16.80;99.90
11838;DHT22;5978;51.020;6.764;2023-04-29T14:48:56;16.70;99.90
11838;DHT22;5978;51.020;6.764;2023-04-29T14:51:21;16.50;99.90
11838;DHT22;5978;51.020;6.764;2023-04-29T14:53:47;16.40;99.90
11838;DHT22;5978;51.020;6.764;2023-04-29T14:56:15;16.30;99.90
11838;DHT22;5978;51.020;6.764;2023-04-29T14:58:41;16.30;99.90
11838;DHT22;5978;51.020;6.764;2023-04-29T15:01:06;16.30;99.90
11838;DHT22;5978;51.020;6.764;2023-04-29T15:03:33;16.40;99.90
11838;DHT22;5978;51.020;6.764;2023-04-29T15:06:02;16.40;99.90
11838;DHT22;5978;51.020;6.764;2023-04-29T15:08:29;16.30;99.90
11838;DHT22;5978;51.020;6.764;2023-04-29T15:10:55;16.30;99.90
11838;DHT22;5978;51.020;6.764;2023-04-29T15:13:21;16.20;99.90
11838;DHT22;5978;51.020;6.764;2023-04-29T15:15:47;16.10;99.90
11838;DHT22;5978;51.020;6.764;2023-04-29T15:18:13;16.00;99.90
11838;DHT22;5978;51.020;6.764;2023-04-29T15:20:39;16.00;99.90
11838;DHT22;5978;51.020;6.764;2023-04-29T15:23:05;16.00;99.90
11838;DHT22;5978;51.020;6.764;2023-04-29T15:25:31;15.90;99.90
11838;DHT22;5978;51.020;6.764;2023-04-29T15:28:01;15.90;99.90
11838;DHT22;5978;51.020;6.764;2023-04-29T15:30:28;15.90;99.90
11838;DHT22;5978;51.020;6.764;2023-04-29T15:32:54;15.90;99.90
11838;DHT22;5978;51.020;6.764;2023-04-29T15:35:20;15.80;99.90
11838;DHT22;5978;51.020;6.764;2023-04-29T15:37:46;15.70;99.90
11838;DHT22;5978;51.020;6.764;2023-04-29T15:40:11;15.70;99.90
11838;DHT22;5978;51.020;6.764;2023-04-29T15:42:37;15.60;99.90
11838;DHT22;5978;51.020;6.764;2023-04-29T15:45:03;15.60;99.90
11838;DHT22;5978;51.020;6.764;2023-04-29T15:47:31;15.50;99.90
11838;DHT22;5978;51.020;6.764;2023-04-29T15:49:57;15.60;99.90
11838;DHT22;5978;51.020;6.764;2023-04-29T15:52:22;15.50;99.90
11838;DHT22;5978;51.020;6.764;2023-04-29T15:54:48;15.50;99.90
11838;DHT22;5978;51.020;6.764;2023-04-29T15:57:14;15.50;99.90
11838;DHT22;5978;51.020;6.764;2023-04-29T15:59:40;15.60;99.90
11838;DHT22;5978;51.020;6.764;2023-04-29T16:02:05;15.60;99.90
11838;DHT22;5978;51.020;6.764;2023-04-29T16:04:36;15.50;99.90
11838;DHT22;5978;51.020;6.764;2023-04-29T16:07:02;15.60;99.90